Time;durP1;ratioP1;P1;durP2;ratioP2;P2;SDS_P1;SDS_P2;PMS_P1;PMS_P2;Temp;Humidity;BMP_temperature;BMP_pressure;BME280_temperature;BME280_humidity;BME280_pressure;Samples;Min_cycle;Max_cycle;Signal;HPM_P1;HPM_P2
2023/12/08 00:01:34;;;;;;;35.60;24.98;;;0.50;99.90;;;;;;5060430;28;20212;-61
2023/12/08 00:04:03;;;;;;;37.75;25.20;;;0.40;99.90;;;;;;5054886;28;20221;-59
2023/12/08 00:06:29;;;;;;;36.53;24.42;;;0.40;99.90;;;;;;5064668;28;20604;-60
2023/12/08 00:08:56;;;;;;;35.45;25.23;;;0.40;99.90;;;;;;5054638;28;20221;-61
2023/12/08 00:11:23;;;;;;;33.42;23.73;;;0.40;99.90;;;;;;5060230;28;20206;-60
2023/12/08 00:13:50;;;;;;;35.50;24.63;;;0.40;99.90;;;;;;5062398;28;20579;-59
2023/12/08 00:16:17;;;;;;;40.22;27.70;;;0.40;99.90;;;;;;5060340;28;20198;-60
2023/12/08 00:18:43;;;;;;;35.58;22.95;;;0.40;99.90;;;;;;5049371;28;20704;-61
2023/12/08 00:21:12;;;;;;;33.55;24.40;;;0.40;99.90;;;;;;5056877;28;20208;-59
2023/12/08 00:23:38;;;;;;;37.30;23.02;;;0.40;99.90;;;;;;5052501;28;20205;-61
2023/12/08 00:26:05;;;;;;;30.52;23.10;;;0.40;99.90;;;;;;5064169;28;20234;-61
2023/12/08 00:28:32;;;;;;;31.48;23.35;;;0.50;99.90;;;;;;5051496;28;20314;-61
2023/12/08 00:30:59;;;;;;;31.38;23.67;;;0.50;99.90;;;;;;5063474;28;20213;-60
2023/12/08 00:33:26;;;;;;;33.15;23.40;;;0.50;99.90;;;;;;5058535;28;20202;-61
2023/12/08 00:35:53;;;;;;;32.00;22.20;;;0.50;99.90;;;;;;5062970;28;20206;-59
2023/12/08 00:38:21;;;;;;;33.60;23.23;;;0.50;99.90;;;;;;5050154;28;20236;-61
2023/12/08 00:40:49;;;;;;;42.35;23.67;;;0.50;99.90;;;;;;5053611;28;20296;-61
2023/12/08 00:43:15;;;;;;;33.00;23.75;;;0.50;99.90;;;;;;5061316;28;20218;-61
2023/12/08 00:45:42;;;;;;;41.90;24.02;;;0.60;99.90;;;;;;5060502;28;20212;-60
2023/12/08 00:48:10;;;;;;;39.05;23.08;;;0.60;99.90;;;;;;5053459;28;20587;-59
2023/12/08 00:50:37;;;;;;;32.10;23.38;;;0.60;99.90;;;;;;5051527;28;20673;-61
2023/12/08 00:53:03;;;;;;;34.38;22.48;;;0.60;99.90;;;;;;5063129;28;20215;-56
2023/12/08 00:55:31;;;;;;;36.38;22.95;;;0.60;99.90;;;;;;5058810;28;20684;-61
2023/12/08 00:57:58;;;;;;;29.65;22.02;;;0.70;99.90;;;;;;5055131;28;20227;-59
2023/12/08 01:00:25;;;;;;;30.00;22.10;;;0.70;99.90;;;;;;5067248;28;20202;-59
2023/12/08 01:02:52;;;;;;;33.90;21.38;;;0.70;99.90;;;;;;5057289;28;20210;-60
2023/12/08 01:05:18;;;;;;;31.20;23.00;;;0.70;99.90;;;;;;5063993;28;20209;-60
2023/12/08 01:07:45;;;;;;;31.30;21.05;;;0.70;99.90;;;;;;5064135;28;20320;-60
2023/12/08 01:10:12;;;;;;;33.60;24.45;;;0.80;99.90;;;;;;5072666;28;20584;-61
2023/12/08 01:12:40;;;;;;;38.15;24.08;;;0.70;99.90;;;;;;5052452;28;20301;-61
2023/12/08 01:15:08;;;;;;;30.35;21.92;;;0.80;99.90;;;;;;5059149;28;20208;-60
2023/12/08 01:17:35;;;;;;;34.38;23.85;;;0.80;99.90;;;;;;5061482;28;20198;-57
2023/12/08 01:20:02;;;;;;;31.02;24.98;;;0.80;99.90;;;;;;5059874;28;20422;-60
2023/12/08 01:22:29;;;;;;;36.22;24.65;;;0.80;99.90;;;;;;5060986;28;20587;-61
2023/12/08 01:24:56;;;;;;;29.58;20.63;;;0.80;99.90;;;;;;5060032;28;20202;-61
2023/12/08 01:27:23;;;;;;;31.98;21.35;;;0.80;99.90;;;;;;5052348;28;20238;-62
2023/12/08 01:29:51;;;;;;;36.90;23.02;;;0.90;99.90;;;;;;5059797;28;20217;-62
2023/12/08 01:32:18;;;;;;;32.45;22.58;;;0.80;99.90;;;;;;5067744;28;20212;-62
2023/12/08 01:34:45;;;;;;;35.83;24.50;;;0.80;99.90;;;;;;5052154;28;20206;-62
2023/12/08 01:37:12;;;;;;;28.20;21.27;;;0.90;99.90;;;;;;5051742;28;20202;-62
2023/12/08 01:39:38;;;;;;;30.70;21.20;;;0.90;99.90;;;;;;5062184;28;20232;-62
2023/12/08 01:42:05;;;;;;;30.13;23.45;;;0.90;99.90;;;;;;5057462;28;20293;-62
2023/12/08 01:44:32;;;;;;;28.60;21.83;;;0.90;99.90;;;;;;5067237;28;20220;-61
2023/12/08 01:47:01;;;;;;;27.23;19.02;;;1.00;99.90;;;;;;5057195;28;20609;-61
2023/12/08 01:49:27;;;;;;;33.00;20.65;;;1.00;99.90;;;;;;5071271;28;20363;-61
2023/12/08 01:51:54;;;;;;;28.05;20.92;;;1.00;99.90;;;;;;5058969;28;20294;-61
2023/12/08 01:54:22;;;;;;;25.55;18.75;;;1.00;99.90;;;;;;5066970;28;20210;-60
2023/12/08 01:56:48;;;;;;;35.38;21.48;;;1.00;99.90;;;;;;5055625;28;20720;-61
2023/12/08 01:59:16;;;;;;;33.92;21.77;;;1.10;99.90;;;;;;5063474;28;20313;-61
2023/12/08 02:01:43;;;;;;;31.80;21.70;;;1.10;99.90;;;;;;5062346;28;20216;-60
2023/12/08 02:04:11;;;;;;;28.90;20.25;;;1.10;99.90;;;;;;5056257;28;20211;-61
2023/12/08 02:06:38;;;;;;;32.35;21.10;;;1.10;99.90;;;;;;5066933;28;20229;-61
2023/12/08 02:09:07;;;;;;;29.08;18.85;;;1.10;99.90;;;;;;5057510;28;20780;-58
2023/12/08 02:11:34;;;;;;;27.10;19.42;;;1.10;99.90;;;;;;5061044;28;20210;-61
2023/12/08 02:14:02;;;;;;;25.17;17.92;;;1.20;99.90;;;;;;5065103;28;20296;-61
2023/12/08 02:16:36;;;;;;;25.52;17.55;;;1.20;99.90;;;;;;5053157;28;20568;-61
2023/12/08 02:19:07;;;;;;;29.13;20.38;;;1.20;99.90;;;;;;5071180;28;20247;-61
2023/12/08 02:21:36;;;;;;;30.17;20.05;;;1.20;99.90;;;;;;5061087;28;20294;-60
2023/12/08 02:24:04;;;;;;;23.52;17.90;;;1.20;99.90;;;;;;5065146;28;20296;-60
2023/12/08 02:26:31;;;;;;;25.08;18.83;;;1.20;99.90;;;;;;5053103;28;20226;-60
2023/12/08 02:28:58;;;;;;;33.03;20.05;;;1.20;99.90;;;;;;5065548;28;20320;-60
2023/12/08 02:31:29;;;;;;;23.10;17.70;;;1.20;99.90;;;;;;5059762;28;20698;-60
2023/12/08 02:33:57;;;;;;;29.48;19.30;;;1.20;99.90;;;;;;5057873;28;20198;-61
2023/12/08 02:36:26;;;;;;;32.25;20.35;;;1.20;99.90;;;;;;5065927;28;20311;-59
2023/12/08 02:38:55;;;;;;;23.10;17.77;;;1.20;99.90;;;;;;5055031;28;20591;-61
2023/12/08 02:41:23;;;;;;;26.08;19.38;;;1.20;99.90;;;;;;5062049;28;20229;-62
2023/12/08 02:43:50;;;;;;;30.23;18.13;;;1.20;99.90;;;;;;5052432;28;20282;-60
2023/12/08 02:46:17;;;;;;;24.17;17.58;;;1.20;99.90;;;;;;5050741;28;20213;-62
2023/12/08 02:48:44;;;;;;;24.73;19.75;;;1.20;99.90;;;;;;5051903;28;20226;-61
2023/12/08 02:51:11;;;;;;;23.48;16.90;;;1.20;99.90;;;;;;5052274;28;20289;-60
2023/12/08 02:53:37;;;;;;;30.60;18.05;;;1.20;99.90;;;;;;5052104;28;20212;-62
2023/12/08 02:56:05;;;;;;;22.73;16.90;;;1.20;99.90;;;;;;5052360;28;20232;-61
2023/12/08 02:58:34;;;;;;;24.27;17.58;;;1.20;99.90;;;;;;5052037;28;20309;-62
2023/12/08 03:01:01;;;;;;;25.73;16.40;;;1.30;99.90;;;;;;5052117;28;20681;-61
2023/12/08 03:03:28;;;;;;;29.40;19.08;;;1.30;99.90;;;;;;5051993;28;20288;-61
2023/12/08 03:05:54;;;;;;;29.63;19.73;;;1.30;99.90;;;;;;5051924;28;20198;-60
2023/12/08 03:08:21;;;;;;;24.92;17.63;;;1.30;99.90;;;;;;5049890;28;20288;-60
2023/12/08 03:10:48;;;;;;;18.50;14.98;;;1.30;99.90;;;;;;5049538;28;20202;-61
2023/12/08 03:13:15;;;;;;;25.25;17.08;;;1.30;99.90;;;;;;5052218;28;20213;-62
2023/12/08 03:15:43;;;;;;;24.05;16.02;;;1.30;99.90;;;;;;5051946;28;20206;-61
2023/12/08 03:18:10;;;;;;;22.83;16.42;;;1.30;99.90;;;;;;5051731;28;20222;-61
2023/12/08 03:20:36;;;;;;;25.80;16.60;;;1.30;99.90;;;;;;5051964;28;20587;-62
2023/12/08 03:23:03;;;;;;;22.20;16.35;;;1.30;99.90;;;;;;5051666;28;20210;-62
2023/12/08 03:25:30;;;;;;;26.30;17.50;;;1.30;99.90;;;;;;5051874;28;20210;-61
2023/12/08 03:27:57;;;;;;;20.20;15.93;;;1.30;99.90;;;;;;5051095;28;20230;-62
2023/12/08 03:30:24;;;;;;;25.20;16.55;;;1.30;99.90;;;;;;5051726;28;20217;-61
2023/12/08 03:32:52;;;;;;;25.27;17.23;;;1.30;99.90;;;;;;5051802;28;20210;-60
2023/12/08 03:35:20;;;;;;;22.52;16.88;;;1.30;99.90;;;;;;5051488;28;20211;-61
2023/12/08 03:37:47;;;;;;;24.27;16.13;;;1.30;99.90;;;;;;5051490;28;20226;-61
2023/12/08 03:40:14;;;;;;;23.17;16.30;;;1.30;99.90;;;;;;5051574;28;20220;-61
2023/12/08 03:42:41;;;;;;;25.70;17.65;;;1.30;99.90;;;;;;5051611;28;20297;-61
2023/12/08 03:45:08;;;;;;;24.67;16.45;;;1.30;99.90;;;;;;5051468;28;20755;-61
2023/12/08 03:47:35;;;;;;;24.20;16.70;;;1.30;99.90;;;;;;5051073;28;20601;-61
2023/12/08 03:50:03;;;;;;;22.30;16.13;;;1.30;99.90;;;;;;5051377;28;20206;-60
2023/12/08 03:52:30;;;;;;;22.20;15.10;;;1.30;99.90;;;;;;5051584;28;20306;-62
2023/12/08 03:54:57;;;;;;;19.15;14.32;;;1.30;99.90;;;;;;5051318;28;20220;-60
2023/12/08 03:57:24;;;;;;;23.65;14.90;;;1.30;99.90;;;;;;5051105;28;20221;-62
2023/12/08 03:59:50;;;;;;;20.40;16.45;;;1.30;99.90;;;;;;5051437;28;20206;-61
2023/12/08 04:02:17;;;;;;;19.42;14.85;;;1.40;99.90;;;;;;5051262;28;20687;-61
2023/12/08 04:04:44;;;;;;;20.05;15.05;;;1.40;99.90;;;;;;5049997;28;20198;-61
2023/12/08 04:07:12;;;;;;;21.40;15.73;;;1.30;99.90;;;;;;5049929;28;20714;-60
2023/12/08 04:09:39;;;;;;;24.23;16.70;;;1.30;99.90;;;;;;5050794;28;20219;-61
2023/12/08 04:12:06;;;;;;;24.30;16.15;;;1.30;99.90;;;;;;5050789;28;20202;-61
2023/12/08 04:14:33;;;;;;;21.60;13.50;;;1.30;99.90;;;;;;5051010;28;20285;-62
2023/12/08 04:17:00;;;;;;;18.30;16.17;;;1.30;99.90;;;;;;5058208;22;20586;-58
2023/12/08 04:19:26;;;;;;;22.58;15.50;;;1.30;99.90;;;;;;5030893;28;20302;-55
2023/12/08 04:21:53;;;;;;;19.10;13.40;;;1.30;99.90;;;;;;5031556;28;20214;-56
2023/12/08 04:24:21;;;;;;;22.38;13.07;;;1.30;99.90;;;;;;5031555;28;20289;-56
2023/12/08 04:26:48;;;;;;;22.55;14.63;;;1.30;99.90;;;;;;5031446;28;20608;-57
2023/12/08 04:29:15;;;;;;;23.10;15.88;;;1.30;99.90;;;;;;5031336;28;20211;-56
2023/12/08 04:31:42;;;;;;;25.40;17.38;;;1.30;99.90;;;;;;5031521;28;20260;-57
2023/12/08 04:34:09;;;;;;;18.42;13.65;;;1.30;99.90;;;;;;5032415;28;20211;-57
2023/12/08 04:36:36;;;;;;;22.92;15.10;;;1.20;99.90;;;;;;5035227;28;20935;-56
2023/12/08 04:39:02;;;;;;;18.10;14.63;;;1.30;99.90;;;;;;5035411;28;20203;-57
2023/12/08 04:41:31;;;;;;;23.63;14.93;;;1.30;99.90;;;;;;5035507;28;20205;-58
2023/12/08 04:43:57;;;;;;;24.60;16.88;;;1.30;99.90;;;;;;5035413;28;20570;-57
2023/12/08 04:46:25;;;;;;;20.15;14.57;;;1.30;99.90;;;;;;5034966;28;20230;-55
2023/12/08 04:48:52;;;;;;;23.80;15.75;;;1.30;99.90;;;;;;5035160;28;20223;-57
2023/12/08 04:51:18;;;;;;;25.10;16.92;;;1.30;99.90;;;;;;5034946;28;20229;-56
2023/12/08 04:53:45;;;;;;;24.98;15.32;;;1.30;99.90;;;;;;5034905;28;20214;-57
2023/12/08 04:56:12;;;;;;;23.67;16.67;;;1.30;99.90;;;;;;5033606;28;20259;-58
2023/12/08 04:58:40;;;;;;;20.70;16.23;;;1.30;99.90;;;;;;5034719;28;20293;-55
2023/12/08 05:01:12;;;;;;;23.90;16.02;;;1.30;99.90;;;;;;5034704;28;20207;-57
2023/12/08 05:03:39;;;;;;;24.30;16.63;;;1.30;99.90;;;;;;5034670;28;20203;-58
2023/12/08 05:06:07;;;;;;;26.70;16.83;;;1.30;99.90;;;;;;5034369;28;20219;-57
2023/12/08 05:08:34;;;;;;;28.75;19.67;;;1.30;99.90;;;;;;5034286;28;20219;-56
2023/12/08 05:11:01;;;;;;;25.92;17.52;;;1.30;99.90;;;;;;5034109;28;20207;-58
2023/12/08 05:13:27;;;;;;;28.30;18.85;;;1.30;99.90;;;;;;5034427;28;20205;-53
2023/12/08 05:15:55;;;;;;;20.77;16.38;;;1.40;99.90;;;;;;5033661;28;20243;-59
2023/12/08 05:18:22;;;;;;;23.45;17.45;;;1.40;99.90;;;;;;5034438;28;20293;-57
2023/12/08 05:20:49;;;;;;;24.40;16.10;;;1.30;99.90;;;;;;5034545;28;20745;-54
2023/12/08 05:23:16;;;;;;;22.85;15.07;;;1.40;99.90;;;;;;5034568;28;20226;-56
2023/12/08 05:25:43;;;;;;;22.10;15.50;;;1.40;99.90;;;;;;5034294;28;20222;-59
2023/12/08 05:28:09;;;;;;;29.92;18.02;;;1.40;99.90;;;;;;5034319;28;20608;-58
2023/12/08 05:30:36;;;;;;;25.85;18.45;;;1.40;99.90;;;;;;5034535;28;20207;-57
2023/12/08 05:33:04;;;;;;;27.00;16.40;;;1.40;99.90;;;;;;5034462;28;20218;-56
2023/12/08 05:35:31;;;;;;;22.13;17.50;;;1.40;99.90;;;;;;5034109;28;20610;-58
2023/12/08 05:37:58;;;;;;;26.02;17.05;;;1.40;99.90;;;;;;5034481;28;20235;-59
2023/12/08 05:40:25;;;;;;;23.55;15.50;;;1.40;99.90;;;;;;5034175;28;20211;-59
2023/12/08 05:42:51;;;;;;;21.98;15.48;;;1.40;99.90;;;;;;5034346;28;20210;-58
2023/12/08 05:45:18;;;;;;;22.00;16.15;;;1.40;99.90;;;;;;5033673;28;20302;-55
2023/12/08 05:47:45;;;;;;;25.70;16.13;;;1.40;99.90;;;;;;5033697;28;20233;-56
2023/12/08 05:50:14;;;;;;;23.60;16.73;;;1.50;99.90;;;;;;5033926;28;20210;-56
2023/12/08 05:52:40;;;;;;;26.85;18.58;;;1.50;99.90;;;;;;5033860;28;20214;-59
2023/12/08 05:55:08;;;;;;;21.08;16.05;;;1.50;99.90;;;;;;5034016;28;20684;-58
2023/12/08 05:57:35;;;;;;;23.45;15.88;;;1.50;99.90;;;;;;5033697;28;20217;-56
2023/12/08 06:00:05;;;;;;;22.85;16.60;;;1.50;99.90;;;;;;5033883;28;20211;-57
2023/12/08 06:02:32;;;;;;;24.73;16.88;;;1.50;99.90;;;;;;5033786;28;20203;-57
2023/12/08 06:04:58;;;;;;;21.58;15.18;;;1.50;99.90;;;;;;5033670;28;20745;-58
2023/12/08 06:07:27;;;;;;;22.27;14.50;;;1.50;99.90;;;;;;5033461;28;20234;-54
2023/12/08 06:09:53;;;;;;;23.50;16.30;;;1.50;99.90;;;;;;5033902;28;20207;-58
2023/12/08 06:12:20;;;;;;;21.85;15.65;;;1.50;99.90;;;;;;5033875;28;20213;-57
2023/12/08 06:14:47;;;;;;;16.80;14.10;;;1.50;99.90;;;;;;5033535;28;20213;-58
2023/12/08 06:17:14;;;;;;;22.75;17.02;;;1.60;99.90;;;;;;5033018;28;20239;-58
2023/12/08 06:19:41;;;;;;;19.95;15.38;;;1.60;99.90;;;;;;5033663;28;20580;-58
2023/12/08 06:22:08;;;;;;;21.02;13.23;;;1.60;99.90;;;;;;5033141;28;20211;-57
2023/12/08 06:24:36;;;;;;;23.27;16.88;;;1.60;99.90;;;;;;5033351;28;20727;-58
2023/12/08 06:27:03;;;;;;;20.08;14.45;;;1.60;99.90;;;;;;5033136;28;20237;-55
2023/12/08 06:29:30;;;;;;;20.30;15.63;;;1.60;99.90;;;;;;5033069;28;20248;-56
2023/12/08 06:31:57;;;;;;;25.88;17.88;;;1.60;99.90;;;;;;5033130;28;20214;-53
2023/12/08 06:34:24;;;;;;;18.65;14.43;;;1.60;99.90;;;;;;5033429;28;20234;-53
2023/12/08 06:36:50;;;;;;;23.65;16.75;;;1.60;99.90;;;;;;5032974;28;20233;-56
2023/12/08 06:39:17;;;;;;;24.00;17.42;;;1.60;99.90;;;;;;5033027;28;20696;-58
2023/12/08 06:41:45;;;;;;;26.02;19.23;;;1.60;99.90;;;;;;5033327;28;20667;-58
2023/12/08 06:44:12;;;;;;;24.73;16.50;;;1.60;99.90;;;;;;5033092;28;20207;-58
2023/12/08 06:46:39;;;;;;;26.73;17.33;;;1.60;99.90;;;;;;5032647;28;20241;-56
2023/12/08 06:49:06;;;;;;;22.73;17.13;;;1.60;99.90;;;;;;5032619;28;20230;-59
2023/12/08 06:51:35;;;;;;;28.67;17.65;;;1.60;99.90;;;;;;5032823;28;20302;-59
2023/12/08 06:54:03;;;;;;;20.65;18.33;;;1.60;99.90;;;;;;5032794;28;20736;-57
2023/12/08 06:56:29;;;;;;;23.73;16.65;;;1.60;99.90;;;;;;5031573;28;20757;-57
2023/12/08 06:58:58;;;;;;;27.05;18.05;;;1.60;99.90;;;;;;5032163;28;20211;-57
2023/12/08 07:01:25;;;;;;;23.65;17.38;;;1.60;99.90;;;;;;5032688;28;20207;-59
2023/12/08 07:03:51;;;;;;;21.20;15.90;;;1.60;99.90;;;;;;5032858;28;20298;-58
2023/12/08 07:06:18;;;;;;;26.13;18.02;;;1.60;99.90;;;;;;5032244;28;20234;-57
2023/12/08 07:08:45;;;;;;;29.02;21.00;;;1.60;99.90;;;;;;5032201;28;20227;-59
2023/12/08 07:11:12;;;;;;;27.00;19.95;;;1.60;99.90;;;;;;5032683;28;20207;-55
2023/12/08 07:13:39;;;;;;;23.88;18.38;;;1.60;99.90;;;;;;5032285;28;20210;-58
2023/12/08 07:16:09;;;;;;;32.28;20.65;;;1.60;99.90;;;;;;5032253;28;20246;-57
2023/12/08 07:18:37;;;;;;;25.00;17.05;;;1.60;99.90;;;;;;5032369;28;20211;-59
2023/12/08 07:21:04;;;;;;;26.60;18.48;;;1.60;99.90;;;;;;5032197;28;20207;-56
2023/12/08 07:23:31;;;;;;;23.27;17.75;;;1.60;99.90;;;;;;5031174;28;20294;-58
2023/12/08 07:25:58;;;;;;;25.42;18.42;;;1.60;99.90;;;;;;5031929;28;20585;-56
2023/12/08 07:28:25;;;;;;;27.77;18.73;;;1.60;99.90;;;;;;5032164;28;20231;-56
2023/12/08 07:30:52;;;;;;;25.52;18.42;;;1.60;99.90;;;;;;5024410;28;20573;-59
2023/12/08 07:33:20;;;;;;;24.75;17.95;;;1.60;99.90;;;;;;5032506;28;20211;-52
2023/12/08 07:35:47;;;;;;;22.48;18.15;;;1.60;99.90;;;;;;5031955;28;20241;-54
2023/12/08 07:38:14;;;;;;;25.33;19.25;;;1.60;99.90;;;;;;5031556;28;20207;-57
2023/12/08 07:40:41;;;;;;;32.92;18.30;;;1.60;99.90;;;;;;5030797;28;20214;-58
2023/12/08 07:43:08;;;;;;;29.17;17.98;;;1.60;99.90;;;;;;5032117;28;20203;-59
2023/12/08 07:45:34;;;;;;;26.77;18.52;;;1.60;99.90;;;;;;5032267;28;20234;-58
2023/12/08 07:48:01;;;;;;;30.80;18.73;;;1.60;99.90;;;;;;5031602;28;20736;-59
2023/12/08 07:50:30;;;;;;;28.05;19.38;;;1.60;99.90;;;;;;5032054;28;20301;-57
2023/12/08 07:52:56;;;;;;;25.75;17.15;;;1.60;99.90;;;;;;5031973;28;20211;-57
2023/12/08 07:55:24;;;;;;;35.67;18.77;;;1.70;99.90;;;;;;5031572;28;20233;-55
2023/12/08 07:57:51;;;;;;;28.20;19.30;;;1.60;99.90;;;;;;5031677;28;20206;-56
2023/12/08 08:00:19;;;;;;;22.73;18.63;;;1.70;99.90;;;;;;5031676;28;20199;-59
2023/12/08 08:02:46;;;;;;;27.90;18.13;;;1.70;99.90;;;;;;5031948;28;20624;-59
2023/12/08 08:05:13;;;;;;;21.25;16.25;;;1.70;99.90;;;;;;5031514;28;20217;-56
2023/12/08 08:07:41;;;;;;;29.17;19.00;;;1.70;99.90;;;;;;5031177;28;20203;-57
2023/12/08 08:10:08;;;;;;;28.92;21.38;;;1.70;99.90;;;;;;5031734;28;20265;-56
2023/12/08 08:12:35;;;;;;;22.73;18.20;;;1.70;99.90;;;;;;5031180;28;20238;-59
2023/12/08 08:15:02;;;;;;;34.83;19.02;;;1.70;99.90;;;;;;5031371;28;20302;-60
2023/12/08 08:17:29;;;;;;;29.73;19.15;;;1.70;99.90;;;;;;5031235;28;20265;-56
2023/12/08 08:19:55;;;;;;;28.60;20.10;;;1.70;99.90;;;;;;5031542;28;20611;-59
2023/12/08 08:22:22;;;;;;;26.27;19.83;;;1.70;99.90;;;;;;5031407;28;20213;-58
2023/12/08 08:24:50;;;;;;;31.73;21.60;;;1.70;99.90;;;;;;5031393;28;20213;-58
2023/12/08 08:27:17;;;;;;;28.58;19.70;;;1.70;99.90;;;;;;5031203;28;20235;-59
2023/12/08 08:29:44;;;;;;;25.80;19.77;;;1.70;99.90;;;;;;5031243;28;20233;-57
2023/12/08 08:32:11;;;;;;;26.90;19.45;;;1.80;99.90;;;;;;5031439;28;20230;-58
2023/12/08 08:34:38;;;;;;;31.08;20.63;;;1.70;99.90;;;;;;5031231;28;20210;-55
2023/12/08 08:37:04;;;;;;;36.45;20.85;;;1.80;99.90;;;;;;5031322;28;20233;-59
2023/12/08 08:39:31;;;;;;;29.38;19.13;;;1.80;99.90;;;;;;5031282;28;20306;-59
2023/12/08 08:41:59;;;;;;;33.08;23.05;;;1.80;99.90;;;;;;5031473;28;20211;-55
2023/12/08 08:44:28;;;;;;;30.85;23.45;;;1.80;99.90;;;;;;5031300;28;20218;-57
2023/12/08 08:46:55;;;;;;;32.13;24.25;;;1.80;99.90;;;;;;5031234;28;20285;-58
2023/12/08 08:49:23;;;;;;;38.55;24.42;;;1.80;99.90;;;;;;5030823;28;20604;-57
2023/12/08 08:51:50;;;;;;;32.03;24.70;;;1.80;99.90;;;;;;5031136;28;20298;-58
2023/12/08 08:54:18;;;;;;;25.60;18.48;;;1.80;99.90;;;;;;5031432;28;20219;-59
2023/12/08 08:56:45;;;;;;;29.42;21.33;;;1.90;99.90;;;;;;5031274;28;20606;-57
2023/12/08 08:59:13;;;;;;;24.67;19.52;;;1.90;99.90;;;;;;5030772;28;20199;-56
2023/12/08 09:01:41;;;;;;;26.17;18.15;;;1.90;99.90;;;;;;5031708;28;20218;-59
2023/12/08 09:04:08;;;;;;;23.27;17.02;;;1.90;99.90;;;;;;5031051;28;20210;-57
2023/12/08 09:06:35;;;;;;;25.50;17.90;;;1.90;99.90;;;;;;5031147;28;20239;-59
2023/12/08 09:09:03;;;;;;;32.20;21.15;;;1.90;99.90;;;;;;5031035;28;20314;-57
2023/12/08 09:11:30;;;;;;;26.05;17.70;;;1.90;99.90;;;;;;5030945;28;20302;-55
2023/12/08 09:13:57;;;;;;;28.45;17.15;;;1.90;99.90;;;;;;5030994;28;20297;-58
2023/12/08 09:16:25;;;;;;;27.27;18.92;;;1.90;99.90;;;;;;5030799;28;20235;-55
2023/12/08 09:18:52;;;;;;;27.73;18.10;;;1.90;99.90;;;;;;5030867;28;20294;-58
2023/12/08 09:21:19;;;;;;;24.02;19.23;;;1.90;99.90;;;;;;5033870;28;20297;-58
2023/12/08 09:23:46;;;;;;;27.55;18.40;;;1.90;99.90;;;;;;5034865;28;20588;-56
2023/12/08 09:26:13;;;;;;;25.25;18.65;;;1.90;99.90;;;;;;5034444;28;20231;-58
2023/12/08 09:28:40;;;;;;;24.10;17.98;;;2.00;99.90;;;;;;5034275;28;20264;-59
2023/12/08 09:31:07;;;;;;;26.00;19.02;;;2.00;99.90;;;;;;5034349;28;20686;-58
2023/12/08 09:33:35;;;;;;;23.75;18.08;;;2.00;99.90;;;;;;5034573;28;20293;-57
2023/12/08 09:36:02;;;;;;;24.73;18.15;;;2.00;99.90;;;;;;5034509;28;20233;-58
2023/12/08 09:38:29;;;;;;;28.85;17.52;;;2.00;99.90;;;;;;5034298;28;20207;-60
2023/12/08 09:40:55;;;;;;;30.95;20.60;;;2.00;99.90;;;;;;5034524;28;20210;-58
2023/12/08 09:43:26;;;;;;;29.25;18.35;;;2.00;99.90;;;;;;5034583;28;20298;-59
2023/12/08 09:45:55;;;;;;;29.98;19.38;;;2.00;99.90;;;;;;5034398;28;20248;-59
2023/12/08 09:48:26;;;;;;;31.67;18.73;;;2.00;99.90;;;;;;5034226;28;20214;-59
2023/12/08 09:50:56;;;;;;;27.45;21.17;;;2.00;99.90;;;;;;5034353;28;20237;-56
2023/12/08 09:53:24;;;;;;;29.77;20.27;;;2.00;99.90;;;;;;5034084;28;20211;-57
2023/12/08 09:55:52;;;;;;;25.38;18.75;;;2.00;99.90;;;;;;5033937;28;20231;-58
2023/12/08 09:58:19;;;;;;;26.23;20.55;;;2.00;99.90;;;;;;5033951;28;20213;-58
2023/12/08 10:00:48;;;;;;;29.92;20.92;;;2.00;99.90;;;;;;5034425;28;20298;-56
2023/12/08 10:03:15;;;;;;;48.88;35.35;;;2.00;99.90;;;;;;5034216;28;20210;-57
2023/12/08 10:05:42;;;;;;;37.45;26.15;;;2.00;99.90;;;;;;5033591;28;20309;-60
2023/12/08 10:08:10;;;;;;;48.33;33.97;;;2.00;99.90;;;;;;5033889;28;20209;-58
2023/12/08 10:10:37;;;;;;;33.83;23.70;;;2.00;99.90;;;;;;5033813;28;20693;-59
2023/12/08 10:13:05;;;;;;;34.35;24.35;;;2.00;99.90;;;;;;5033841;28;20211;-58
2023/12/08 10:15:31;;;;;;;34.08;22.08;;;2.00;99.90;;;;;;5033504;28;20241;-59
2023/12/08 10:17:58;;;;;;;28.77;20.77;;;2.00;99.90;;;;;;5072764;22;20598;-62
2023/12/08 10:20:25;;;;;;;38.70;22.95;;;2.00;99.90;;;;;;5053084;28;20210;-61
2023/12/08 10:22:54;;;;;;;30.58;22.90;;;2.00;99.90;;;;;;5050924;28;20344;-62
2023/12/08 10:25:23;;;;;;;38.05;24.23;;;2.00;99.90;;;;;;5051821;28;20297;-62
2023/12/08 10:27:51;;;;;;;26.08;19.83;;;2.10;99.90;;;;;;5051761;28;20226;-62
2023/12/08 10:30:19;;;;;;;28.35;21.90;;;2.10;99.90;;;;;;5051732;28;20222;-62
2023/12/08 10:32:47;;;;;;;26.60;21.55;;;2.10;99.90;;;;;;5050229;28;20285;-62
2023/12/08 10:35:14;;;;;;;29.35;20.40;;;2.10;99.90;;;;;;5052003;28;20294;-61
2023/12/08 10:37:41;;;;;;;30.25;23.05;;;2.10;99.90;;;;;;5051214;28;20229;-62
2023/12/08 10:40:10;;;;;;;24.95;20.92;;;2.10;99.90;;;;;;5051923;28;20675;-60
2023/12/08 10:42:38;;;;;;;32.33;21.38;;;2.10;99.90;;;;;;5051836;28;20648;-62
2023/12/08 10:45:10;;;;;;;27.58;21.75;;;2.10;99.90;;;;;;5051654;28;20253;-62
2023/12/08 10:47:40;;;;;;;29.08;21.00;;;2.10;99.90;;;;;;5051404;28;20230;-62
2023/12/08 10:50:09;;;;;;;34.97;22.27;;;2.10;99.90;;;;;;5051131;28;20222;-62
2023/12/08 10:52:37;;;;;;;33.38;20.52;;;2.10;99.90;;;;;;5051390;28;20272;-62
2023/12/08 10:55:05;;;;;;;30.23;21.48;;;2.20;99.90;;;;;;5051422;28;20210;-61
2023/12/08 10:57:32;;;;;;;37.60;24.02;;;2.10;99.90;;;;;;5051052;28;20652;-61
2023/12/08 11:00:11;;;;;;;34.50;24.50;;;2.10;99.90;;;;;;5051288;28;20757;-62
2023/12/08 11:02:41;;;;;;;23.90;18.88;;;2.10;99.90;;;;;;5051283;28;20297;-62
2023/12/08 11:05:10;;;;;;;29.85;21.83;;;2.20;99.90;;;;;;5051340;28;20297;-62
2023/12/08 11:07:43;;;;;;;35.30;23.35;;;2.20;99.90;;;;;;5050585;28;20226;-61
2023/12/08 11:10:13;;;;;;;28.90;22.05;;;2.20;99.90;;;;;;5051050;28;20222;-61
2023/12/08 11:12:44;;;;;;;26.42;20.15;;;2.20;99.90;;;;;;5050918;28;20740;-61
2023/12/08 11:15:16;;;;;;;29.60;21.80;;;2.20;99.90;;;;;;5051371;28;20206;-61
2023/12/08 11:17:50;;;;;;;30.65;20.63;;;2.20;99.90;;;;;;5050438;28;20238;-62
2023/12/08 11:20:18;;;;;;;40.05;23.75;;;2.20;99.90;;;;;;5051089;28;20293;-62
2023/12/08 11:22:46;;;;;;;28.00;22.73;;;2.20;99.90;;;;;;5051034;28;20573;-62
2023/12/08 11:25:20;;;;;;;34.15;23.10;;;2.30;99.90;;;;;;5050886;28;20210;-62
2023/12/08 11:27:51;;;;;;;24.52;20.55;;;2.30;99.90;;;;;;5050687;28;20241;-62
2023/12/08 11:30:26;;;;;;;22.60;19.15;;;2.30;99.90;;;;;;5050817;28;20236;-61
2023/12/08 11:33:02;;;;;;;33.42;24.60;;;2.30;99.90;;;;;;5050967;28;20263;-62
2023/12/08 11:35:30;;;;;;;29.63;20.75;;;2.30;99.90;;;;;;5050961;28;20660;-62
2023/12/08 11:37:57;;;;;;;31.17;20.95;;;2.30;99.90;;;;;;5050118;28;20246;-62
2023/12/08 11:40:24;;;;;;;33.97;22.00;;;2.30;99.90;;;;;;5050643;28;20685;-62
2023/12/08 11:42:53;;;;;;;27.10;20.98;;;2.30;99.90;;;;;;5050233;28;20305;-61
2023/12/08 11:45:22;;;;;;;32.05;23.58;;;2.30;99.90;;;;;;5050576;28;20301;-61
2023/12/08 11:47:49;;;;;;;41.90;23.90;;;2.30;99.90;;;;;;5049995;28;20234;-60
2023/12/08 11:50:18;;;;;;;32.20;23.15;;;2.40;99.90;;;;;;5050427;28;20317;-61
2023/12/08 11:52:45;;;;;;;33.00;22.13;;;2.40;99.90;;;;;;5050380;28;20214;-62
2023/12/08 11:55:12;;;;;;;34.95;23.13;;;2.40;99.90;;;;;;5049193;28;20207;-62
2023/12/08 11:57:43;;;;;;;34.03;23.20;;;2.40;99.90;;;;;;5049284;28;20220;-63
2023/12/08 12:00:11;;;;;;;29.55;21.15;;;2.40;99.90;;;;;;5049750;28;20293;-62
2023/12/08 12:02:43;;;;;;;31.33;23.65;;;2.40;99.90;;;;;;5050046;28;20268;-61
2023/12/08 12:05:11;;;;;;;42.92;26.95;;;2.50;99.90;;;;;;5050090;28;20210;-62
2023/12/08 12:07:38;;;;;;;26.83;20.70;;;2.40;99.90;;;;;;5049522;28;20272;-62
2023/12/08 12:10:10;;;;;;;30.88;21.15;;;2.50;99.90;;;;;;5049983;28;20317;-62
2023/12/08 12:12:40;;;;;;;29.20;20.85;;;2.50;99.90;;;;;;5049264;28;20206;-62
2023/12/08 12:15:09;;;;;;;27.50;22.90;;;2.50;99.90;;;;;;5049358;28;20325;-62
2023/12/08 12:17:37;;;;;;;41.15;24.85;;;2.50;99.90;;;;;;5049128;28;20317;-62
2023/12/08 12:20:08;;;;;;;29.27;20.33;;;2.50;99.90;;;;;;5049968;28;20562;-61
2023/12/08 12:22:35;;;;;;;28.63;21.00;;;2.50;99.90;;;;;;5049872;28;20631;-62
2023/12/08 12:25:01;;;;;;;33.85;23.75;;;2.50;99.90;;;;;;5049656;28;20216;-62
2023/12/08 12:27:28;;;;;;;24.85;20.00;;;2.50;99.90;;;;;;5049144;28;20234;-62
2023/12/08 12:29:56;;;;;;;25.48;20.08;;;2.50;99.90;;;;;;5049739;28;20602;-61
2023/12/08 12:32:23;;;;;;;31.25;22.33;;;2.50;99.90;;;;;;5049200;28;20210;-62
2023/12/08 12:34:50;;;;;;;31.38;23.98;;;2.50;99.90;;;;;;5049789;28;20220;-61
2023/12/08 12:37:18;;;;;;;33.70;25.10;;;2.50;99.90;;;;;;5049099;28;20272;-60